KHDE

Brewster Field Airport

Holdrege, Nebraska, USA
METAR KHDE 151855Z AUTO 06004KT 10SM SCT033 OVC042 M11/M14 A3005 RMK AO2 T11121140
Observed Flight Rules
Feb-15 @ 18:55 UTC (10 minutes ago) Visual Flight Rules
Wind Visibility Clouds
60° at 4 knots 10 miles
  • Scattered at 3,300' AGL
  • Overcast at 4,200' AGL
Temperatures Readings
Current -11°C / 12°F
Dewpoint -14°C / 7°F
Humidity 79%
Altimeter 30.05" Hg
Pressure 1017.62 hPa
Elevation 705
METAR KHDE 151855Z AUTO 06004KT 10SM SCT033 OVC042 M11/M14 A3005 RMK AO2 T11121140
Observed Flight Rules
Feb-15 @ 18:55 UTC
(10 minutes ago)
VFR
Wind Visibility
60° at 4 knots 10 miles
Clouds
  • Scattered at 3,300' AGL
  • Overcast at 4,200' AGL
Temperature Dewpoint
-11°C / 12°F -14°C / 7°F
Humidity Altimeter Pressure
79% 30.05" Hg 1017.62 hPa